createdAt,value
2022-10-05T00:00:00.072Z,8.43
2022-10-05T00:05:02.846Z,8.40
2022-10-05T00:10:11.949Z,7.95
2022-10-05T00:15:15.946Z,7.13
2022-10-05T00:20:23.910Z,7.25
2022-10-05T00:25:26.371Z,6.82
2022-10-05T00:30:33.126Z,7.70
2022-10-05T00:35:40.306Z,7.75
2022-10-05T00:41:11.039Z,8.02
2022-10-05T00:46:27.367Z,8.77
2022-10-05T00:51:32.394Z,7.97
2022-10-05T00:57:03.271Z,7.60
2022-10-05T01:02:37.056Z,8.20
2022-10-05T01:07:49.586Z,9.40
2022-10-05T01:12:51.732Z,8.52
2022-10-05T01:17:59.260Z,8.35
2022-10-05T01:23:22.937Z,8.90
2022-10-05T01:28:30.974Z,7.65
2022-10-05T01:33:52.903Z,7.13
2022-10-05T01:39:10.736Z,8.63
2022-10-05T01:44:18.193Z,8.40
2022-10-05T01:49:54.778Z,8.07
2022-10-05T01:55:15.188Z,8.45
2022-10-05T02:00:18.775Z,8.23
2022-10-05T02:05:26.749Z,7.75
2022-10-05T02:10:31.816Z,8.27
2022-10-05T02:15:46.931Z,6.65
2022-10-05T02:20:50.102Z,6.57
2022-10-05T02:25:53.144Z,7.72
2022-10-05T02:31:01.695Z,7.68
2022-10-05T02:36:14.390Z,8.43
2022-10-05T02:41:32.005Z,7.50
2022-10-05T02:46:36.798Z,7.43
2022-10-05T02:51:51.398Z,7.15
2022-10-05T02:57:28.460Z,7.85
2022-10-05T03:02:38.456Z,8.00
2022-10-05T03:08:09.967Z,8.88
2022-10-05T03:13:37.702Z,7.53
2022-10-05T03:18:57.650Z,7.35
2022-10-05T03:24:10.159Z,7.03
2022-10-05T03:29:18.988Z,6.93
2022-10-05T03:34:33.257Z,7.30
2022-10-05T03:39:40.042Z,7.22
2022-10-05T03:45:24.122Z,8.00
2022-10-05T03:50:32.961Z,7.93
2022-10-05T03:56:07.827Z,7.65
2022-10-05T04:01:13.248Z,7.85
2022-10-05T04:06:22.791Z,8.38
2022-10-05T04:11:34.992Z,7.75
2022-10-05T04:16:44.563Z,9.18
2022-10-05T04:22:11.115Z,12.05
2022-10-05T04:27:15.894Z,10.00
2022-10-05T04:32:39.222Z,9.38
2022-10-05T04:38:21.171Z,9.25
2022-10-05T04:44:01.455Z,8.77
2022-10-05T04:49:32.705Z,8.13
2022-10-05T04:55:04.801Z,8.00
2022-10-05T05:00:21.456Z,8.32
2022-10-05T05:06:11.986Z,8.95
2022-10-05T05:11:29.445Z,8.95
2022-10-05T05:16:45.012Z,8.95
2022-10-05T05:22:03.020Z,8.88
2022-10-05T05:27:24.906Z,8.52
2022-10-05T05:32:49.123Z,7.90
2022-10-05T05:38:01.078Z,12.75
2022-10-05T05:43:16.417Z,17.70
2022-10-05T05:48:32.814Z,15.32
2022-10-05T05:53:42.156Z,11.10
2022-10-05T05:59:02.538Z,8.60
2022-10-05T06:04:11.892Z,8.98
2022-10-05T06:09:35.769Z,9.35
2022-10-05T06:15:11.478Z,8.85
2022-10-05T06:20:40.322Z,9.13
2022-10-05T06:25:53.257Z,9.00
2022-10-05T06:31:29.747Z,7.60
2022-10-05T06:36:42.466Z,8.00
2022-10-05T06:42:05.551Z,8.02
2022-10-05T06:47:55.184Z,6.90
2022-10-05T06:53:29.479Z,7.38
2022-10-05T06:58:43.376Z,6.90
2022-10-05T07:03:54.377Z,7.68
2022-10-05T07:09:56.556Z,7.38
2022-10-05T07:15:19.842Z,6.75
2022-10-05T07:20:49.042Z,6.30
2022-10-05T07:26:06.466Z,6.80
2022-10-05T07:31:14.206Z,7.05
2022-10-05T07:36:53.694Z,6.07
2022-10-05T07:42:19.033Z,5.93
2022-10-05T07:47:30.929Z,6.00
2022-10-05T07:52:41.754Z,5.80
2022-10-05T07:58:02.043Z,7.60
2022-10-05T08:03:14.479Z,4.72
2022-10-05T08:08:35.344Z,4.40
2022-10-05T08:13:56.465Z,4.28
2022-10-05T08:19:23.430Z,4.10
2022-10-05T08:24:38.887Z,4.22
2022-10-05T08:29:51.199Z,3.80
2022-10-05T08:35:28.068Z,4.00
2022-10-05T08:40:42.920Z,3.47
2022-10-05T08:46:22.747Z,4.70
2022-10-05T08:51:56.111Z,4.78
2022-10-05T08:57:26.719Z,4.00
2022-10-05T09:03:41.841Z,4.13
2022-10-05T09:09:35.799Z,3.40
2022-10-05T09:15:24.432Z,3.38
2022-10-05T09:21:03.930Z,3.55
2022-10-05T09:26:09.355Z,3.80
2022-10-05T09:31:35.993Z,3.45
2022-10-05T09:37:15.681Z,3.92
2022-10-05T09:42:36.563Z,3.05
2022-10-05T09:48:25.728Z,3.20
2022-10-05T09:54:03.373Z,3.15
2022-10-05T10:12:01.163Z,3.30
2022-10-05T10:17:16.330Z,3.35
2022-10-05T10:22:40.915Z,3.13
2022-10-05T10:28:39.271Z,2.95
2022-10-05T10:34:48.363Z,2.92
2022-10-05T10:40:37.186Z,2.72
2022-10-05T10:46:13.230Z,2.50
2022-10-05T10:51:40.084Z,2.30
2022-10-05T10:57:12.185Z,2.70
2022-10-05T11:16:02.154Z,18.70
2022-10-05T11:29:11.970Z,10.75
2022-10-05T11:41:19.027Z,12.32
2022-10-05T11:46:46.760Z,18.38
2022-10-05T11:52:06.586Z,12.98
2022-10-05T11:57:27.658Z,6.45
2022-10-05T12:09:16.834Z,6.13
2022-10-05T12:15:03.254Z,5.70
2022-10-05T12:20:35.587Z,6.40
2022-10-05T12:27:02.148Z,5.88
2022-10-05T12:32:12.057Z,30.70
2022-10-05T12:37:39.782Z,22.98
2022-10-05T12:43:40.096Z,23.27
2022-10-05T12:48:53.433Z,12.83
2022-10-05T12:54:19.137Z,12.27
2022-10-05T12:59:42.585Z,14.98
2022-10-05T13:05:12.247Z,13.88
2022-10-05T13:10:41.061Z,13.57
2022-10-05T13:16:08.383Z,15.77
2022-10-05T13:21:19.564Z,20.80
2022-10-05T13:26:43.970Z,30.55
2022-10-05T13:31:49.370Z,21.90
2022-10-05T13:37:06.961Z,9.95
2022-10-05T13:42:20.146Z,6.28
2022-10-05T13:47:39.045Z,5.97
2022-10-05T13:52:48.158Z,5.70
2022-10-05T13:58:03.896Z,7.63
2022-10-05T14:03:33.905Z,8.00
2022-10-05T14:08:52.629Z,12.80
2022-10-05T14:14:14.882Z,13.95
2022-10-05T14:19:27.186Z,12.13
2022-10-05T14:24:44.830Z,8.83
2022-10-05T14:30:18.226Z,7.95
2022-10-05T14:35:22.262Z,8.10
2022-10-05T14:40:28.780Z,7.40
2022-10-05T14:45:36.638Z,6.25
2022-10-05T14:51:28.641Z,15.13
2022-10-05T14:56:40.448Z,29.35
2022-10-05T15:02:18.233Z,37.67
2022-10-05T15:07:20.423Z,24.77
2022-10-05T15:18:49.278Z,20.40
2022-10-05T15:29:26.224Z,9.88
2022-10-05T15:35:04.049Z,8.35
2022-10-05T15:40:20.576Z,6.90
2022-10-05T15:45:42.410Z,7.30
2022-10-05T15:51:00.778Z,8.38
2022-10-05T15:56:19.197Z,8.70
2022-10-05T16:01:42.590Z,14.10
2022-10-05T16:07:16.728Z,15.85
2022-10-05T16:12:35.431Z,13.48
2022-10-05T16:18:07.498Z,11.70
2022-10-05T16:23:37.496Z,9.68
2022-10-05T16:28:55.974Z,14.02
2022-10-05T16:34:18.265Z,21.50
2022-10-05T16:39:45.066Z,14.85
2022-10-05T16:45:08.464Z,15.10
2022-10-05T16:50:24.103Z,16.35
2022-10-05T16:55:37.886Z,19.83
2022-10-05T17:01:39.781Z,18.85
2022-10-05T17:07:17.189Z,16.92
2022-10-05T17:12:32.555Z,12.55
2022-10-05T17:17:49.204Z,14.60
2022-10-05T17:22:53.320Z,16.63
2022-10-05T17:28:33.211Z,12.65
2022-10-05T17:34:10.740Z,10.38
2022-10-05T17:39:24.162Z,8.02
2022-10-05T17:44:26.559Z,9.05
2022-10-05T17:49:38.074Z,7.60
2022-10-05T17:55:13.870Z,8.13
2022-10-05T18:00:42.170Z,7.95
2022-10-05T18:05:46.920Z,12.07
2022-10-05T18:11:12.811Z,12.82
2022-10-05T18:16:53.588Z,12.52
2022-10-05T18:22:15.576Z,11.85
2022-10-05T18:27:34.323Z,11.82
2022-10-05T18:32:58.000Z,12.50
2022-10-05T18:43:31.072Z,11.60
2022-10-05T18:48:58.311Z,11.93
2022-10-05T18:54:28.662Z,12.48
2022-10-05T18:59:42.120Z,11.68
2022-10-05T19:05:03.933Z,11.05
2022-10-05T19:10:23.411Z,11.20
2022-10-05T19:16:08.464Z,9.88
2022-10-05T19:21:29.472Z,13.18
2022-10-05T19:27:10.022Z,10.10
2022-10-05T19:32:21.256Z,14.40
2022-10-05T19:37:51.567Z,17.38
2022-10-05T19:43:05.474Z,18.20
2022-10-05T19:48:32.659Z,25.65
2022-10-05T19:53:39.302Z,24.02
2022-10-05T19:59:07.627Z,20.13
2022-10-05T20:05:23.772Z,21.60
2022-10-05T20:23:32.473Z,16.77
2022-10-05T20:28:44.574Z,15.27
2022-10-05T20:33:47.713Z,14.73
2022-10-05T20:38:50.105Z,12.23
2022-10-05T20:43:52.330Z,10.97
2022-10-05T20:48:54.987Z,13.82
2022-10-05T20:53:58.675Z,13.43
2022-10-05T20:59:25.545Z,11.63
2022-10-05T21:04:40.248Z,10.27
2022-10-05T21:10:18.829Z,11.63
2022-10-05T21:15:23.387Z,10.27
2022-10-05T21:20:31.211Z,9.35
2022-10-05T21:25:40.198Z,8.82
2022-10-05T21:30:43.096Z,8.38
2022-10-05T21:35:46.249Z,8.27
2022-10-05T21:40:52.199Z,8.63
2022-10-05T21:46:01.095Z,8.13
2022-10-05T21:51:04.761Z,8.50
2022-10-05T21:56:11.093Z,6.95
2022-10-05T22:01:13.568Z,8.93
2022-10-05T22:06:37.316Z,6.53
2022-10-05T22:16:43.709Z,6.13
2022-10-05T22:21:48.740Z,5.15
2022-10-05T22:26:51.713Z,6.28
2022-10-05T22:31:55.992Z,6.65
2022-10-05T22:36:58.505Z,5.38
2022-10-05T22:42:01.376Z,4.77
2022-10-05T22:47:24.098Z,4.20
2022-10-05T22:52:27.336Z,4.80
2022-10-05T22:57:40.302Z,4.03
2022-10-05T23:02:43.647Z,3.42
2022-10-05T23:13:00.832Z,3.95
2022-10-05T23:18:03.619Z,4.28
2022-10-05T23:23:05.977Z,4.30
2022-10-05T23:33:11.350Z,3.30
2022-10-05T23:38:13.646Z,3.22
2022-10-05T23:43:15.929Z,3.08
2022-10-05T23:48:18.191Z,3.08
2022-10-05T23:53:21.786Z,3.28
2022-10-05T23:58:24.692Z,4.40
